sensor_id;sensor_type;location;lat;lon;timestamp;P1;durP1;ratioP1;P2;durP2;ratioP2
27357;SDS011;14831;50.474;7.616;2022-07-29T00:04:53;1.6;;;1.4;;
27357;SDS011;14831;50.474;7.616;2022-07-29T00:09:53;1.6;;;1.4;;
27357;SDS011;14831;50.474;7.616;2022-07-29T00:14:54;1.6;;;1.4;;
27357;SDS011;14831;50.474;7.616;2022-07-29T00:19:54;3.3;;;1.5;;
27357;SDS011;14831;50.474;7.616;2022-07-29T00:24:53;3.3;;;1.5;;
27357;SDS011;14831;50.474;7.616;2022-07-29T00:29:53;3.3;;;1.5;;
27357;SDS011;14831;50.474;7.616;2022-07-29T00:34:53;3.3;;;1.5;;
27357;SDS011;14831;50.474;7.616;2022-07-29T00:39:53;3.3;;;1.5;;
27357;SDS011;14831;50.474;7.616;2022-07-29T00:44:54;3.3;;;1.5;;
27357;SDS011;14831;50.474;7.616;2022-07-29T00:49:53;2.7;;;1.6;;
27357;SDS011;14831;50.474;7.616;2022-07-29T00:54:53;2.7;;;1.6;;
27357;SDS011;14831;50.474;7.616;2022-07-29T00:59:53;2.7;;;1.6;;
27357;SDS011;14831;50.474;7.616;2022-07-29T01:04:53;2.7;;;1.6;;
27357;SDS011;14831;50.474;7.616;2022-07-29T01:09:54;2.7;;;1.6;;
27357;SDS011;14831;50.474;7.616;2022-07-29T01:14:54;2.7;;;1.6;;
27357;SDS011;14831;50.474;7.616;2022-07-29T01:19:59;1.4;;;1.3;;
27357;SDS011;14831;50.474;7.616;2022-07-29T01:25:05;1.4;;;1.3;;
27357;SDS011;14831;50.474;7.616;2022-07-29T01:29:56;1.4;;;1.3;;
27357;SDS011;14831;50.474;7.616;2022-07-29T01:34:56;1.4;;;1.3;;
27357;SDS011;14831;50.474;7.616;2022-07-29T01:39:57;1.4;;;1.3;;
27357;SDS011;14831;50.474;7.616;2022-07-29T01:44:57;1.4;;;1.3;;
27357;SDS011;14831;50.474;7.616;2022-07-29T01:49:56;2.2;;;1.5;;
27357;SDS011;14831;50.474;7.616;2022-07-29T01:54:57;2.2;;;1.5;;
27357;SDS011;14831;50.474;7.616;2022-07-29T01:59:54;2.2;;;1.5;;
27357;SDS011;14831;50.474;7.616;2022-07-29T02:04:54;2.2;;;1.5;;
27357;SDS011;14831;50.474;7.616;2022-07-29T02:09:54;2.2;;;1.5;;
27357;SDS011;14831;50.474;7.616;2022-07-29T02:14:55;2.2;;;1.5;;
27357;SDS011;14831;50.474;7.616;2022-07-29T02:19:56;2.0;;;1.4;;
27357;SDS011;14831;50.474;7.616;2022-07-29T02:24:55;2.0;;;1.4;;
27357;SDS011;14831;50.474;7.616;2022-07-29T02:29:55;2.0;;;1.4;;
27357;SDS011;14831;50.474;7.616;2022-07-29T02:34:54;2.0;;;1.4;;
27357;SDS011;14831;50.474;7.616;2022-07-29T02:39:54;2.0;;;1.4;;
27357;SDS011;14831;50.474;7.616;2022-07-29T02:44:53;2.0;;;1.4;;
27357;SDS011;14831;50.474;7.616;2022-07-29T02:49:56;2.2;;;1.7;;
27357;SDS011;14831;50.474;7.616;2022-07-29T02:54:56;2.2;;;1.7;;
27357;SDS011;14831;50.474;7.616;2022-07-29T02:59:57;2.2;;;1.7;;
27357;SDS011;14831;50.474;7.616;2022-07-29T03:04:55;2.2;;;1.7;;
27357;SDS011;14831;50.474;7.616;2022-07-29T03:09:54;2.2;;;1.7;;
27357;SDS011;14831;50.474;7.616;2022-07-29T03:14:54;2.2;;;1.7;;
27357;SDS011;14831;50.474;7.616;2022-07-29T03:19:54;2.6;;;1.6;;
27357;SDS011;14831;50.474;7.616;2022-07-29T03:24:53;2.6;;;1.6;;
27357;SDS011;14831;50.474;7.616;2022-07-29T03:29:53;2.6;;;1.6;;
27357;SDS011;14831;50.474;7.616;2022-07-29T03:34:53;2.6;;;1.6;;
27357;SDS011;14831;50.474;7.616;2022-07-29T03:39:55;2.6;;;1.6;;
27357;SDS011;14831;50.474;7.616;2022-07-29T03:44:55;2.6;;;1.6;;
27357;SDS011;14831;50.474;7.616;2022-07-29T03:49:58;1.9;;;1.7;;
27357;SDS011;14831;50.474;7.616;2022-07-29T03:54:53;1.9;;;1.7;;
27357;SDS011;14831;50.474;7.616;2022-07-29T03:59:54;1.9;;;1.7;;
27357;SDS011;14831;50.474;7.616;2022-07-29T04:04:53;1.9;;;1.7;;
27357;SDS011;14831;50.474;7.616;2022-07-29T04:09:53;1.9;;;1.7;;
27357;SDS011;14831;50.474;7.616;2022-07-29T04:14:53;1.9;;;1.7;;
27357;SDS011;14831;50.474;7.616;2022-07-29T04:19:53;2.2;;;1.7;;
27357;SDS011;14831;50.474;7.616;2022-07-29T04:24:53;2.2;;;1.7;;
27357;SDS011;14831;50.474;7.616;2022-07-29T04:29:53;2.2;;;1.7;;
27357;SDS011;14831;50.474;7.616;2022-07-29T04:34:53;2.2;;;1.7;;
27357;SDS011;14831;50.474;7.616;2022-07-29T04:39:54;2.2;;;1.7;;
27357;SDS011;14831;50.474;7.616;2022-07-29T04:44:53;2.2;;;1.7;;
27357;SDS011;14831;50.474;7.616;2022-07-29T04:49:53;5.0;;;2.7;;
27357;SDS011;14831;50.474;7.616;2022-07-29T04:54:53;5.0;;;2.7;;
27357;SDS011;14831;50.474;7.616;2022-07-29T04:59:53;5.0;;;2.7;;
27357;SDS011;14831;50.474;7.616;2022-07-29T05:04:53;5.0;;;2.7;;
27357;SDS011;14831;50.474;7.616;2022-07-29T05:09:53;5.0;;;2.7;;
27357;SDS011;14831;50.474;7.616;2022-07-29T05:14:53;5.0;;;2.7;;
27357;SDS011;14831;50.474;7.616;2022-07-29T05:19:53;6.3;;;2.8;;
27357;SDS011;14831;50.474;7.616;2022-07-29T05:24:53;6.3;;;2.8;;
27357;SDS011;14831;50.474;7.616;2022-07-29T05:29:53;6.3;;;2.8;;
27357;SDS011;14831;50.474;7.616;2022-07-29T05:34:53;6.3;;;2.8;;
27357;SDS011;14831;50.474;7.616;2022-07-29T05:39:53;6.3;;;2.8;;
27357;SDS011;14831;50.474;7.616;2022-07-29T05:44:53;6.3;;;2.8;;
27357;SDS011;14831;50.474;7.616;2022-07-29T05:49:53;3.7;;;2.5;;
27357;SDS011;14831;50.474;7.616;2022-07-29T05:54:53;3.7;;;2.5;;
27357;SDS011;14831;50.474;7.616;2022-07-29T05:59:53;3.7;;;2.5;;
27357;SDS011;14831;50.474;7.616;2022-07-29T06:04:53;3.7;;;2.5;;
27357;SDS011;14831;50.474;7.616;2022-07-29T06:09:53;3.7;;;2.5;;
27357;SDS011;14831;50.474;7.616;2022-07-29T06:14:53;3.7;;;2.5;;
27357;SDS011;14831;50.474;7.616;2022-07-29T06:19:53;4.4;;;2.7;;
27357;SDS011;14831;50.474;7.616;2022-07-29T06:24:53;4.4;;;2.7;;
27357;SDS011;14831;50.474;7.616;2022-07-29T06:29:53;4.4;;;2.7;;
27357;SDS011;14831;50.474;7.616;2022-07-29T06:34:53;4.4;;;2.7;;
27357;SDS011;14831;50.474;7.616;2022-07-29T06:39:53;4.4;;;2.7;;
27357;SDS011;14831;50.474;7.616;2022-07-29T06:44:53;4.4;;;2.7;;
27357;SDS011;14831;50.474;7.616;2022-07-29T06:49:53;5.2;;;2.7;;
27357;SDS011;14831;50.474;7.616;2022-07-29T06:54:53;5.2;;;2.7;;
27357;SDS011;14831;50.474;7.616;2022-07-29T06:59:55;5.2;;;2.7;;
27357;SDS011;14831;50.474;7.616;2022-07-29T07:04:54;5.2;;;2.7;;
27357;SDS011;14831;50.474;7.616;2022-07-29T07:09:53;5.2;;;2.7;;
27357;SDS011;14831;50.474;7.616;2022-07-29T07:14:53;5.2;;;2.7;;
27357;SDS011;14831;50.474;7.616;2022-07-29T07:19:53;4.5;;;2.1;;
27357;SDS011;14831;50.474;7.616;2022-07-29T07:24:53;4.5;;;2.1;;
27357;SDS011;14831;50.474;7.616;2022-07-29T07:29:53;4.5;;;2.1;;
27357;SDS011;14831;50.474;7.616;2022-07-29T07:34:53;4.5;;;2.1;;
27357;SDS011;14831;50.474;7.616;2022-07-29T07:39:53;4.5;;;2.1;;
27357;SDS011;14831;50.474;7.616;2022-07-29T07:44:53;4.5;;;2.1;;
27357;SDS011;14831;50.474;7.616;2022-07-29T07:49:53;3.0;;;1.9;;
27357;SDS011;14831;50.474;7.616;2022-07-29T07:54:53;3.0;;;1.9;;
27357;SDS011;14831;50.474;7.616;2022-07-29T07:59:53;3.0;;;1.9;;
27357;SDS011;14831;50.474;7.616;2022-07-29T08:04:53;3.0;;;1.9;;
27357;SDS011;14831;50.474;7.616;2022-07-29T08:09:53;3.0;;;1.9;;
27357;SDS011;14831;50.474;7.616;2022-07-29T08:14:53;3.0;;;1.9;;
27357;SDS011;14831;50.474;7.616;2022-07-29T08:19:54;3.0;;;2.1;;
27357;SDS011;14831;50.474;7.616;2022-07-29T08:24:53;3.0;;;2.1;;
27357;SDS011;14831;50.474;7.616;2022-07-29T08:29:53;3.0;;;2.1;;
27357;SDS011;14831;50.474;7.616;2022-07-29T08:34:53;3.0;;;2.1;;
27357;SDS011;14831;50.474;7.616;2022-07-29T08:39:53;3.0;;;2.1;;
27357;SDS011;14831;50.474;7.616;2022-07-29T08:44:54;3.0;;;2.1;;
27357;SDS011;14831;50.474;7.616;2022-07-29T08:49:53;3.4;;;1.8;;
27357;SDS011;14831;50.474;7.616;2022-07-29T08:54:54;3.4;;;1.8;;
27357;SDS011;14831;50.474;7.616;2022-07-29T08:59:54;3.4;;;1.8;;
27357;SDS011;14831;50.474;7.616;2022-07-29T09:04:53;3.4;;;1.8;;
27357;SDS011;14831;50.474;7.616;2022-07-29T09:09:53;3.4;;;1.8;;
27357;SDS011;14831;50.474;7.616;2022-07-29T09:14:53;3.4;;;1.8;;
27357;SDS011;14831;50.474;7.616;2022-07-29T09:20:08;2.2;;;2.0;;
27357;SDS011;14831;50.474;7.616;2022-07-29T09:24:53;2.2;;;2.0;;
27357;SDS011;14831;50.474;7.616;2022-07-29T09:29:58;2.2;;;2.0;;
27357;SDS011;14831;50.474;7.616;2022-07-29T09:35:27;2.2;;;2.0;;
27357;SDS011;14831;50.474;7.616;2022-07-29T09:39:53;2.2;;;2.0;;
27357;SDS011;14831;50.474;7.616;2022-07-29T09:44:53;2.2;;;2.0;;
27357;SDS011;14831;50.474;7.616;2022-07-29T09:49:55;4.1;;;2.1;;
27357;SDS011;14831;50.474;7.616;2022-07-29T09:55:04;4.1;;;2.1;;
27357;SDS011;14831;50.474;7.616;2022-07-29T09:59:58;4.1;;;2.1;;
27357;SDS011;14831;50.474;7.616;2022-07-29T10:04:53;4.1;;;2.1;;
27357;SDS011;14831;50.474;7.616;2022-07-29T10:09:54;4.1;;;2.1;;
27357;SDS011;14831;50.474;7.616;2022-07-29T10:14:54;4.1;;;2.1;;
27357;SDS011;14831;50.474;7.616;2022-07-29T10:19:53;2.6;;;1.7;;
27357;SDS011;14831;50.474;7.616;2022-07-29T10:24:54;2.6;;;1.7;;
27357;SDS011;14831;50.474;7.616;2022-07-29T10:29:54;2.6;;;1.7;;
27357;SDS011;14831;50.474;7.616;2022-07-29T10:35:15;2.6;;;1.7;;
27357;SDS011;14831;50.474;7.616;2022-07-29T10:40:02;2.6;;;1.7;;
27357;SDS011;14831;50.474;7.616;2022-07-29T10:44:54;2.6;;;1.7;;
27357;SDS011;14831;50.474;7.616;2022-07-29T10:49:57;3.2;;;2.1;;
27357;SDS011;14831;50.474;7.616;2022-07-29T10:54:53;3.2;;;2.1;;
27357;SDS011;14831;50.474;7.616;2022-07-29T11:00:28;3.2;;;2.1;;
27357;SDS011;14831;50.474;7.616;2022-07-29T11:05:02;3.2;;;2.1;;
27357;SDS011;14831;50.474;7.616;2022-07-29T11:10:26;3.2;;;2.1;;
27357;SDS011;14831;50.474;7.616;2022-07-29T11:14:56;3.2;;;2.1;;
27357;SDS011;14831;50.474;7.616;2022-07-29T11:20:30;2.5;;;1.9;;
27357;SDS011;14831;50.474;7.616;2022-07-29T11:25:12;2.5;;;1.9;;
27357;SDS011;14831;50.474;7.616;2022-07-29T11:29:55;2.5;;;1.9;;
27357;SDS011;14831;50.474;7.616;2022-07-29T11:35:17;2.5;;;1.9;;
27357;SDS011;14831;50.474;7.616;2022-07-29T11:40:11;2.5;;;1.9;;
27357;SDS011;14831;50.474;7.616;2022-07-29T11:44:54;2.5;;;1.9;;
27357;SDS011;14831;50.474;7.616;2022-07-29T11:49:55;2.5;;;2.1;;
27357;SDS011;14831;50.474;7.616;2022-07-29T11:54:58;2.5;;;2.1;;
27357;SDS011;14831;50.474;7.616;2022-07-29T11:59:55;2.5;;;2.1;;
27357;SDS011;14831;50.474;7.616;2022-07-29T12:04:55;2.5;;;2.1;;
27357;SDS011;14831;50.474;7.616;2022-07-29T12:09:54;2.5;;;2.1;;
27357;SDS011;14831;50.474;7.616;2022-07-29T12:14:53;2.5;;;2.1;;
27357;SDS011;14831;50.474;7.616;2022-07-29T12:19:54;3.2;;;2.3;;
27357;SDS011;14831;50.474;7.616;2022-07-29T12:24:54;3.2;;;2.3;;
27357;SDS011;14831;50.474;7.616;2022-07-29T12:29:57;3.2;;;2.3;;
27357;SDS011;14831;50.474;7.616;2022-07-29T12:34:53;3.2;;;2.3;;
27357;SDS011;14831;50.474;7.616;2022-07-29T12:39:53;3.2;;;2.3;;
27357;SDS011;14831;50.474;7.616;2022-07-29T12:44:53;3.2;;;2.3;;
27357;SDS011;14831;50.474;7.616;2022-07-29T12:50:08;3.6;;;2.1;;
27357;SDS011;14831;50.474;7.616;2022-07-29T12:54:53;3.6;;;2.1;;
27357;SDS011;14831;50.474;7.616;2022-07-29T13:00:04;3.6;;;2.1;;
27357;SDS011;14831;50.474;7.616;2022-07-29T13:04:55;3.6;;;2.1;;
27357;SDS011;14831;50.474;7.616;2022-07-29T13:09:53;3.6;;;2.1;;
27357;SDS011;14831;50.474;7.616;2022-07-29T13:14:53;3.6;;;2.1;;
27357;SDS011;14831;50.474;7.616;2022-07-29T13:20:06;1.9;;;1.8;;
27357;SDS011;14831;50.474;7.616;2022-07-29T13:24:55;1.9;;;1.8;;
27357;SDS011;14831;50.474;7.616;2022-07-29T13:29:54;1.9;;;1.8;;
27357;SDS011;14831;50.474;7.616;2022-07-29T13:34:54;1.9;;;1.8;;
27357;SDS011;14831;50.474;7.616;2022-07-29T13:39:53;1.9;;;1.8;;
27357;SDS011;14831;50.474;7.616;2022-07-29T13:44:54;1.9;;;1.8;;
27357;SDS011;14831;50.474;7.616;2022-07-29T13:49:53;2.2;;;2.0;;
27357;SDS011;14831;50.474;7.616;2022-07-29T13:54:53;2.2;;;2.0;;
27357;SDS011;14831;50.474;7.616;2022-07-29T13:59:54;2.2;;;2.0;;
27357;SDS011;14831;50.474;7.616;2022-07-29T14:04:53;2.2;;;2.0;;
27357;SDS011;14831;50.474;7.616;2022-07-29T14:09:54;2.2;;;2.0;;
27357;SDS011;14831;50.474;7.616;2022-07-29T14:14:53;2.2;;;2.0;;
27357;SDS011;14831;50.474;7.616;2022-07-29T14:19:53;2.8;;;2.0;;
27357;SDS011;14831;50.474;7.616;2022-07-29T14:24:53;2.8;;;2.0;;
27357;SDS011;14831;50.474;7.616;2022-07-29T14:29:53;2.8;;;2.0;;
27357;SDS011;14831;50.474;7.616;2022-07-29T14:34:53;2.8;;;2.0;;
27357;SDS011;14831;50.474;7.616;2022-07-29T14:39:53;2.8;;;2.0;;
27357;SDS011;14831;50.474;7.616;2022-07-29T14:44:53;2.8;;;2.0;;
27357;SDS011;14831;50.474;7.616;2022-07-29T14:49:53;2.2;;;2.1;;
27357;SDS011;14831;50.474;7.616;2022-07-29T14:54:53;2.2;;;2.1;;
27357;SDS011;14831;50.474;7.616;2022-07-29T14:59:53;2.2;;;2.1;;
27357;SDS011;14831;50.474;7.616;2022-07-29T15:04:53;2.2;;;2.1;;
27357;SDS011;14831;50.474;7.616;2022-07-29T15:09:53;2.2;;;2.1;;
27357;SDS011;14831;50.474;7.616;2022-07-29T15:14:53;2.2;;;2.1;;
27357;SDS011;14831;50.474;7.616;2022-07-29T15:19:53;3.2;;;1.9;;
27357;SDS011;14831;50.474;7.616;2022-07-29T15:24:54;3.2;;;1.9;;
27357;SDS011;14831;50.474;7.616;2022-07-29T15:29:53;3.2;;;1.9;;
27357;SDS011;14831;50.474;7.616;2022-07-29T15:34:53;3.2;;;1.9;;
27357;SDS011;14831;50.474;7.616;2022-07-29T15:39:53;3.2;;;1.9;;
27357;SDS011;14831;50.474;7.616;2022-07-29T15:44:53;3.2;;;1.9;;
27357;SDS011;14831;50.474;7.616;2022-07-29T15:49:53;3.2;;;2.2;;
27357;SDS011;14831;50.474;7.616;2022-07-29T15:54:54;3.2;;;2.2;;
27357;SDS011;14831;50.474;7.616;2022-07-29T15:59:53;3.2;;;2.2;;
27357;SDS011;14831;50.474;7.616;2022-07-29T16:04:53;3.2;;;2.2;;
27357;SDS011;14831;50.474;7.616;2022-07-29T16:09:53;3.2;;;2.2;;
27357;SDS011;14831;50.474;7.616;2022-07-29T16:14:53;3.2;;;2.2;;
27357;SDS011;14831;50.474;7.616;2022-07-29T16:19:53;2.1;;;1.9;;
27357;SDS011;14831;50.474;7.616;2022-07-29T16:24:53;2.1;;;1.9;;
27357;SDS011;14831;50.474;7.616;2022-07-29T16:29:53;2.1;;;1.9;;
27357;SDS011;14831;50.474;7.616;2022-07-29T16:34:53;2.1;;;1.9;;
27357;SDS011;14831;50.474;7.616;2022-07-29T16:39:53;2.1;;;1.9;;
27357;SDS011;14831;50.474;7.616;2022-07-29T16:44:53;2.1;;;1.9;;
27357;SDS011;14831;50.474;7.616;2022-07-29T16:49:53;2.7;;;2.3;;
27357;SDS011;14831;50.474;7.616;2022-07-29T16:54:54;2.7;;;2.3;;
27357;SDS011;14831;50.474;7.616;2022-07-29T16:59:53;2.7;;;2.3;;
27357;SDS011;14831;50.474;7.616;2022-07-29T17:04:53;2.7;;;2.3;;
27357;SDS011;14831;50.474;7.616;2022-07-29T17:09:53;2.7;;;2.3;;
27357;SDS011;14831;50.474;7.616;2022-07-29T17:14:53;2.7;;;2.3;;
27357;SDS011;14831;50.474;7.616;2022-07-29T17:19:53;4.0;;;2.6;;
27357;SDS011;14831;50.474;7.616;2022-07-29T17:24:53;4.0;;;2.6;;
27357;SDS011;14831;50.474;7.616;2022-07-29T17:29:53;4.0;;;2.6;;
27357;SDS011;14831;50.474;7.616;2022-07-29T17:34:53;4.0;;;2.6;;
27357;SDS011;14831;50.474;7.616;2022-07-29T17:39:53;4.0;;;2.6;;
27357;SDS011;14831;50.474;7.616;2022-07-29T17:44:53;4.0;;;2.6;;
27357;SDS011;14831;50.474;7.616;2022-07-29T17:49:53;2.9;;;2.6;;
27357;SDS011;14831;50.474;7.616;2022-07-29T17:54:53;2.9;;;2.6;;
27357;SDS011;14831;50.474;7.616;2022-07-29T17:59:53;2.9;;;2.6;;
27357;SDS011;14831;50.474;7.616;2022-07-29T18:04:53;2.9;;;2.6;;
27357;SDS011;14831;50.474;7.616;2022-07-29T18:09:53;2.9;;;2.6;;
27357;SDS011;14831;50.474;7.616;2022-07-29T18:14:53;2.9;;;2.6;;
27357;SDS011;14831;50.474;7.616;2022-07-29T18:19:53;10.0;;;4.8;;
27357;SDS011;14831;50.474;7.616;2022-07-29T18:24:53;10.0;;;4.8;;
27357;SDS011;14831;50.474;7.616;2022-07-29T18:29:53;10.0;;;4.8;;
27357;SDS011;14831;50.474;7.616;2022-07-29T18:34:53;10.0;;;4.8;;
27357;SDS011;14831;50.474;7.616;2022-07-29T18:39:53;10.0;;;4.8;;
27357;SDS011;14831;50.474;7.616;2022-07-29T18:44:53;10.0;;;4.8;;
27357;SDS011;14831;50.474;7.616;2022-07-29T18:49:53;8.8;;;4.2;;
27357;SDS011;14831;50.474;7.616;2022-07-29T18:54:53;8.8;;;4.2;;
27357;SDS011;14831;50.474;7.616;2022-07-29T18:59:54;8.8;;;4.2;;
27357;SDS011;14831;50.474;7.616;2022-07-29T19:04:53;8.8;;;4.2;;
27357;SDS011;14831;50.474;7.616;2022-07-29T19:09:53;8.8;;;4.2;;
27357;SDS011;14831;50.474;7.616;2022-07-29T19:14:54;8.8;;;4.2;;
27357;SDS011;14831;50.474;7.616;2022-07-29T19:19:53;6.2;;;3.9;;
27357;SDS011;14831;50.474;7.616;2022-07-29T19:24:54;6.2;;;3.9;;
27357;SDS011;14831;50.474;7.616;2022-07-29T19:29:54;6.2;;;3.9;;
27357;SDS011;14831;50.474;7.616;2022-07-29T19:34:53;6.2;;;3.9;;
27357;SDS011;14831;50.474;7.616;2022-07-29T19:39:53;6.2;;;3.9;;
27357;SDS011;14831;50.474;7.616;2022-07-29T19:44:54;6.2;;;3.9;;
27357;SDS011;14831;50.474;7.616;2022-07-29T19:49:53;4.7;;;3.1;;
27357;SDS011;14831;50.474;7.616;2022-07-29T19:54:53;4.7;;;3.1;;
27357;SDS011;14831;50.474;7.616;2022-07-29T19:59:53;4.7;;;3.1;;
27357;SDS011;14831;50.474;7.616;2022-07-29T20:04:53;4.7;;;3.1;;
27357;SDS011;14831;50.474;7.616;2022-07-29T20:09:53;4.7;;;3.1;;
27357;SDS011;14831;50.474;7.616;2022-07-29T20:14:53;4.7;;;3.1;;
27357;SDS011;14831;50.474;7.616;2022-07-29T20:19:53;3.2;;;2.9;;
27357;SDS011;14831;50.474;7.616;2022-07-29T20:24:53;3.2;;;2.9;;
27357;SDS011;14831;50.474;7.616;2022-07-29T20:29:53;3.2;;;2.9;;
27357;SDS011;14831;50.474;7.616;2022-07-29T20:34:53;3.2;;;2.9;;
27357;SDS011;14831;50.474;7.616;2022-07-29T20:39:54;3.2;;;2.9;;
27357;SDS011;14831;50.474;7.616;2022-07-29T20:44:53;3.2;;;2.9;;
27357;SDS011;14831;50.474;7.616;2022-07-29T20:49:53;3.9;;;2.9;;
27357;SDS011;14831;50.474;7.616;2022-07-29T20:54:53;3.9;;;2.9;;
27357;SDS011;14831;50.474;7.616;2022-07-29T20:59:53;3.9;;;2.9;;
27357;SDS011;14831;50.474;7.616;2022-07-29T21:04:53;3.9;;;2.9;;
27357;SDS011;14831;50.474;7.616;2022-07-29T21:09:53;3.9;;;2.9;;
27357;SDS011;14831;50.474;7.616;2022-07-29T21:14:53;3.9;;;2.9;;
27357;SDS011;14831;50.474;7.616;2022-07-29T21:19:53;3.6;;;2.9;;
27357;SDS011;14831;50.474;7.616;2022-07-29T21:24:53;3.6;;;2.9;;
27357;SDS011;14831;50.474;7.616;2022-07-29T21:29:53;3.6;;;2.9;;
27357;SDS011;14831;50.474;7.616;2022-07-29T21:34:53;3.6;;;2.9;;
27357;SDS011;14831;50.474;7.616;2022-07-29T21:39:53;3.6;;;2.9;;
27357;SDS011;14831;50.474;7.616;2022-07-29T21:44:53;3.6;;;2.9;;
27357;SDS011;14831;50.474;7.616;2022-07-29T21:49:53;3.5;;;2.8;;
27357;SDS011;14831;50.474;7.616;2022-07-29T21:54:53;3.5;;;2.8;;
27357;SDS011;14831;50.474;7.616;2022-07-29T21:59:53;3.5;;;2.8;;
27357;SDS011;14831;50.474;7.616;2022-07-29T22:04:53;3.5;;;2.8;;
27357;SDS011;14831;50.474;7.616;2022-07-29T22:09:53;3.5;;;2.8;;
27357;SDS011;14831;50.474;7.616;2022-07-29T22:14:53;3.5;;;2.8;;
27357;SDS011;14831;50.474;7.616;2022-07-29T22:19:53;2.7;;;2.5;;
27357;SDS011;14831;50.474;7.616;2022-07-29T22:24:53;2.7;;;2.5;;
27357;SDS011;14831;50.474;7.616;2022-07-29T22:29:53;2.7;;;2.5;;
27357;SDS011;14831;50.474;7.616;2022-07-29T22:34:53;2.7;;;2.5;;
27357;SDS011;14831;50.474;7.616;2022-07-29T22:39:53;2.7;;;2.5;;
27357;SDS011;14831;50.474;7.616;2022-07-29T22:44:53;2.7;;;2.5;;
27357;SDS011;14831;50.474;7.616;2022-07-29T22:49:54;3.3;;;3.0;;
27357;SDS011;14831;50.474;7.616;2022-07-29T22:54:53;3.3;;;3.0;;
27357;SDS011;14831;50.474;7.616;2022-07-29T22:59:53;3.3;;;3.0;;
27357;SDS011;14831;50.474;7.616;2022-07-29T23:04:53;3.3;;;3.0;;
27357;SDS011;14831;50.474;7.616;2022-07-29T23:09:53;3.3;;;3.0;;
27357;SDS011;14831;50.474;7.616;2022-07-29T23:14:53;3.3;;;3.0;;
27357;SDS011;14831;50.474;7.616;2022-07-29T23:19:53;3.1;;;2.8;;
27357;SDS011;14831;50.474;7.616;2022-07-29T23:24:53;3.1;;;2.8;;
27357;SDS011;14831;50.474;7.616;2022-07-29T23:29:53;3.1;;;2.8;;
27357;SDS011;14831;50.474;7.616;2022-07-29T23:34:53;3.1;;;2.8;;
27357;SDS011;14831;50.474;7.616;2022-07-29T23:39:54;3.1;;;2.8;;
27357;SDS011;14831;50.474;7.616;2022-07-29T23:44:53;3.1;;;2.8;;
27357;SDS011;14831;50.474;7.616;2022-07-29T23:49:53;3.0;;;2.7;;
27357;SDS011;14831;50.474;7.616;2022-07-29T23:54:54;3.0;;;2.7;;
27357;SDS011;14831;50.474;7.616;2022-07-29T23:59:53;3.0;;;2.7;;
